Time;durP1;ratioP1;P1;durP2;ratioP2;P2;SDS_P1;SDS_P2;PMS_P1;PMS_P2;Temp;Humidity;BMP_temperature;BMP_pressure;BME280_temperature;BME280_humidity;BME280_pressure;Samples;Min_cycle;Max_cycle;Signal;HPM_P1;HPM_P2
2022/08/16 00:00:21;;;;;;;8.80;3.83;;;;;;;;;;5072556;28;20025;-65
2022/08/16 00:02:46;;;;;;;5.28;2.80;;;;;;;;;;5071191;28;20028;-66
2022/08/16 00:05:13;;;;;;;6.00;3.03;;;;;;;;;;5071851;28;20373;-66
2022/08/16 00:07:38;;;;;;;3.72;3.00;;;;;;;;;;5071189;28;20056;-66
2022/08/16 00:10:05;;;;;;;6.75;3.63;;;;;;;;;;5072496;28;20813;-66
2022/08/16 00:12:30;;;;;;;7.45;3.38;;;;;;;;;;5071084;28;20456;-66
2022/08/16 00:14:57;;;;;;;6.45;3.20;;;;;;;;;;5071132;28;20056;-66
2022/08/16 00:17:22;;;;;;;7.75;3.42;;;;;;;;;;5078294;28;20518;-66
2022/08/16 00:19:47;;;;;;;5.07;3.50;;;;;;;;;;5071948;28;20016;-66
2022/08/16 00:22:12;;;;;;;4.80;3.70;;;;;;;;;;5081310;28;20016;-66
2022/08/16 00:24:37;;;;;;;5.88;3.78;;;;;;;;;;5079480;28;20267;-66
2022/08/16 00:27:03;;;;;;;5.73;3.47;;;;;;;;;;5072317;28;20028;-66
2022/08/16 00:29:28;;;;;;;4.43;3.00;;;;;;;;;;5068020;28;20274;-66
2022/08/16 00:31:53;;;;;;;6.63;3.50;;;;;;;;;;5072022;28;20043;-66
2022/08/16 00:34:19;;;;;;;4.37;3.43;;;;;;;;;;5070417;28;20081;-66
2022/08/16 00:36:45;;;;;;;8.60;3.40;;;;;;;;;;5071194;28;20267;-65
2022/08/16 00:39:11;;;;;;;8.20;3.42;;;;;;;;;;5068536;28;20012;-66
2022/08/16 00:41:36;;;;;;;7.25;3.22;;;;;;;;;;5065254;28;20107;-66
2022/08/16 00:44:09;;;;;;;5.87;3.43;;;;;;;;;;5067678;28;20582;-66
2022/08/16 00:46:35;;;;;;;7.50;3.33;;;;;;;;;;5068424;28;20309;-66
2022/08/16 00:49:06;;;;;;;5.40;3.17;;;;;;;;;;5071343;28;21353;-66
2022/08/16 00:51:31;;;;;;;5.22;3.15;;;;;;;;;;5069213;28;20062;-65
2022/08/16 00:53:57;;;;;;;7.47;4.00;;;;;;;;;;5067282;28;20423;-66
2022/08/16 00:56:27;;;;;;;7.38;3.20;;;;;;;;;;5069662;28;20324;-66
2022/08/16 00:58:52;;;;;;;7.13;3.53;;;;;;;;;;5067376;28;20023;-66
2022/08/16 01:01:18;;;;;;;5.90;3.07;;;;;;;;;;5064768;28;20484;-66
2022/08/16 01:03:45;;;;;;;6.97;3.40;;;;;;;;;;5069657;28;20020;-66
2022/08/16 01:06:11;;;;;;;7.18;3.10;;;;;;;;;;5070668;28;20393;-66
2022/08/16 01:08:37;;;;;;;4.65;2.90;;;;;;;;;;5083537;28;20365;-66
2022/08/16 01:11:04;;;;;;;6.50;3.45;;;;;;;;;;5079836;28;20031;-65
2022/08/16 01:13:30;;;;;;;5.07;3.17;;;;;;;;;;5061795;28;20107;-66
2022/08/16 01:15:57;;;;;;;8.38;3.45;;;;;;;;;;5079430;28;20024;-67
2022/08/16 01:18:26;;;;;;;5.72;2.25;;;;;;;;;;5070297;28;20100;-66
2022/08/16 01:20:55;;;;;;;3.35;2.60;;;;;;;;;;5068966;28;20048;-66
2022/08/16 01:23:30;;;;;;;4.70;3.23;;;;;;;;;;5068922;28;20024;-66
2022/08/16 01:25:56;;;;;;;4.78;2.97;;;;;;;;;;5062849;28;20020;-66
2022/08/16 01:28:24;;;;;;;8.43;3.40;;;;;;;;;;5069047;28;20024;-66
2022/08/16 01:30:53;;;;;;;3.80;2.80;;;;;;;;;;5071175;28;20116;-66
2022/08/16 01:33:19;;;;;;;6.78;3.10;;;;;;;;;;5077888;28;20028;-66
2022/08/16 01:35:49;;;;;;;6.60;2.92;;;;;;;;;;5070801;28;20590;-66
2022/08/16 01:38:14;;;;;;;;;;;;;;;;;;5064848;28;20011;-66
2022/08/16 01:40:39;;;;;;;6.72;3.35;;;;;;;;;;5063799;28;19908;-66
2022/08/16 01:43:06;;;;;;;6.10;3.80;;;;;;;;;;5062272;28;20062;-66
2022/08/16 01:45:32;;;;;;;4.05;2.97;;;;;;;;;;5068414;28;20024;-66
2022/08/16 01:47:57;;;;;;;10.20;3.13;;;;;;;;;;5064545;28;20040;-66
2022/08/16 01:50:22;;;;;;;5.97;3.10;;;;;;;;;;5071405;28;20024;-66
2022/08/16 01:52:48;;;;;;;6.40;3.90;;;;;;;;;;5065658;28;20599;-66
2022/08/16 01:55:15;;;;;;;5.25;3.03;;;;;;;;;;5067742;28;20523;-66
2022/08/16 01:57:40;;;;;;;3.65;2.80;;;;;;;;;;5071299;28;20025;-66
2022/08/16 02:00:07;;;;;;;4.83;2.80;;;;;;;;;;5071947;28;20029;-66
2022/08/16 02:02:32;;;;;;;6.35;3.55;;;;;;;;;;5071255;28;20267;-65
2022/08/16 02:04:58;;;;;;;6.20;3.33;;;;;;;;;;5065581;28;20047;-66
2022/08/16 02:07:24;;;;;;;4.03;2.60;;;;;;;;;;5070601;28;20643;-65
2022/08/16 02:09:49;;;;;;;5.73;3.20;;;;;;;;;;5070685;28;20024;-66
2022/08/16 02:12:15;;;;;;;9.20;3.17;;;;;;;;;;5074385;28;20270;-66
2022/08/16 02:14:41;;;;;;;4.82;2.67;;;;;;;;;;5072088;28;20055;-65
2022/08/16 02:17:08;;;;;;;8.50;3.85;;;;;;;;;;5074496;28;20024;-66
2022/08/16 02:19:34;;;;;;;6.65;3.60;;;;;;;;;;5073093;28;20082;-66
2022/08/16 02:22:00;;;;;;;4.15;2.67;;;;;;;;;;5068379;28;20440;-65
2022/08/16 02:24:25;;;;;;;4.53;3.10;;;;;;;;;;5073547;28;20099;-66
2022/08/16 02:26:51;;;;;;;6.82;3.28;;;;;;;;;;5075256;28;20020;-66
2022/08/16 02:29:17;;;;;;;4.93;2.92;;;;;;;;;;5072102;28;20064;-66
2022/08/16 02:31:43;;;;;;;8.30;3.38;;;;;;;;;;5072617;28;20703;-66
2022/08/16 02:34:08;;;;;;;5.43;2.63;;;;;;;;;;5073059;28;20025;-65
2022/08/16 02:36:33;;;;;;;6.32;3.40;;;;;;;;;;5068165;28;20024;-66
2022/08/16 02:38:59;;;;;;;6.90;2.97;;;;;;;;;;5073964;28;20016;-66
2022/08/16 02:41:24;;;;;;;6.72;3.30;;;;;;;;;;5073168;28;20266;-66
2022/08/16 02:43:49;;;;;;;12.18;3.33;;;;;;;;;;5074004;28;20139;-66
2022/08/16 02:46:14;;;;;;;8.43;3.63;;;;;;;;;;5069961;28;20178;-66
2022/08/16 02:48:39;;;;;;;7.17;3.00;;;;;;;;;;5081116;28;20468;-66
2022/08/16 02:51:06;;;;;;;4.88;3.20;;;;;;;;;;5073916;28;20274;-66
2022/08/16 02:53:32;;;;;;;4.75;2.95;;;;;;;;;;5072806;28;20462;-66
2022/08/16 02:55:58;;;;;;;9.55;3.72;;;;;;;;;;5071274;28;20024;-66
2022/08/16 02:58:23;;;;;;;6.38;2.90;;;;;;;;;;5073761;28;20019;-66
2022/08/16 03:00:49;;;;;;;9.38;3.25;;;;;;;;;;5066178;28;20568;-66
2022/08/16 03:03:14;;;;;;;5.45;3.00;;;;;;;;;;5066015;28;20043;-66
2022/08/16 03:05:40;;;;;;;4.13;2.83;;;;;;;;;;5071919;28;20052;-66
2022/08/16 03:08:05;;;;;;;5.22;3.55;;;;;;;;;;5071689;28;20052;-66
2022/08/16 03:10:30;;;;;;;8.05;3.08;;;;;;;;;;5074149;28;20035;-66
2022/08/16 03:12:55;;;;;;;6.50;2.60;;;;;;;;;;5070764;28;20016;-66
2022/08/16 03:15:20;;;;;;;6.80;3.40;;;;;;;;;;5067856;28;20120;-66
2022/08/16 03:17:45;;;;;;;6.83;2.83;;;;;;;;;;5072104;28;20012;-65
2022/08/16 03:20:13;;;;;;;7.23;3.17;;;;;;;;;;5072380;28;20048;-66
2022/08/16 03:22:38;;;;;;;5.13;3.05;;;;;;;;;;5071124;28;20658;-66
2022/08/16 03:25:05;;;;;;;7.00;3.33;;;;;;;;;;5073759;28;20053;-66
2022/08/16 03:27:31;;;;;;;6.05;2.70;;;;;;;;;;5072347;28;20055;-66
2022/08/16 03:29:56;;;;;;;5.32;2.67;;;;;;;;;;5060402;28;20025;-66
2022/08/16 03:32:21;;;;;;;4.60;2.60;;;;;;;;;;5070669;28;20032;-66
2022/08/16 03:34:47;;;;;;;5.50;3.10;;;;;;;;;;5078459;28;20472;-65
2022/08/16 03:37:12;;;;;;;5.93;3.17;;;;;;;;;;5080051;28;20556;-66
2022/08/16 03:39:38;;;;;;;5.57;2.90;;;;;;;;;;5071329;28;20283;-65
2022/08/16 03:42:03;;;;;;;4.95;3.15;;;;;;;;;;5073150;28;20515;-66
2022/08/16 03:44:29;;;;;;;5.97;3.83;;;;;;;;;;5059338;28;20040;-66
2022/08/16 03:46:54;;;;;;;6.00;3.22;;;;;;;;;;5072715;28;20039;-66
2022/08/16 03:49:19;;;;;;;9.45;3.30;;;;;;;;;;5071196;28;20527;-66
2022/08/16 03:51:45;;;;;;;6.60;3.03;;;;;;;;;;5072692;28;20388;-66
2022/08/16 03:54:10;;;;;;;4.53;3.10;;;;;;;;;;5063254;28;20024;-66
2022/08/16 03:56:35;;;;;;;10.25;4.85;;;;;;;;;;5069197;28;20267;-66
2022/08/16 03:59:00;;;;;;;6.70;3.17;;;;;;;;;;5061832;28;20024;-65
2022/08/16 04:01:26;;;;;;;7.05;3.42;;;;;;;;;;5075316;28;20400;-65
2022/08/16 04:03:51;;;;;;;7.15;3.20;;;;;;;;;;5055596;28;20433;-65
2022/08/16 04:06:16;;;;;;;7.53;3.45;;;;;;;;;;5070893;28;20519;-65
2022/08/16 04:08:42;;;;;;;6.57;3.45;;;;;;;;;;5071939;28;20032;-65
2022/08/16 04:11:07;;;;;;;3.97;3.20;;;;;;;;;;5069104;28;20055;-65
2022/08/16 04:13:32;;;;;;;5.03;3.13;;;;;;;;;;5065726;28;20048;-65
2022/08/16 04:15:58;;;;;;;9.00;5.03;;;;;;;;;;5068405;28;20028;-65
2022/08/16 04:18:24;;;;;;;7.10;3.75;;;;;;;;;;5070560;28;20021;-65
2022/08/16 04:20:49;;;;;;;5.10;3.50;;;;;;;;;;5071991;28;20108;-65
2022/08/16 04:23:14;;;;;;;4.50;3.47;;;;;;;;;;5071047;28;20023;-66
2022/08/16 04:25:40;;;;;;;7.72;4.13;;;;;;;;;;5066965;28;20013;-65
2022/08/16 04:28:05;;;;;;;5.43;3.40;;;;;;;;;;5071655;28;20029;-65
2022/08/16 04:30:30;;;;;;;12.18;5.28;;;;;;;;;;5066204;28;20278;-66
2022/08/16 04:32:56;;;;;;;6.18;3.25;;;;;;;;;;5070198;28;20032;-65
2022/08/16 04:35:22;;;;;;;7.45;3.63;;;;;;;;;;5070912;28;20481;-66
2022/08/16 04:37:47;;;;;;;10.93;4.10;;;;;;;;;;5072141;28;20520;-65
2022/08/16 04:40:13;;;;;;;7.03;3.20;;;;;;;;;;5064304;28;20109;-66
2022/08/16 04:42:39;;;;;;;8.00;3.90;;;;;;;;;;5070614;28;20021;-66
2022/08/16 04:45:05;;;;;;;6.30;3.90;;;;;;;;;;5062016;28;20028;-65
2022/08/16 04:47:31;;;;;;;9.15;3.58;;;;;;;;;;5069372;28;20073;-65
2022/08/16 04:49:56;;;;;;;5.95;3.90;;;;;;;;;;5070421;28;20024;-65
2022/08/16 04:52:22;;;;;;;9.43;4.10;;;;;;;;;;5071169;28;20036;-65
2022/08/16 04:54:47;;;;;;;9.43;3.83;;;;;;;;;;5065920;28;20052;-66
2022/08/16 04:57:12;;;;;;;7.17;3.70;;;;;;;;;;5071444;28;20016;-65
2022/08/16 04:59:37;;;;;;;8.93;3.77;;;;;;;;;;5066456;28;20258;-65
2022/08/16 05:02:03;;;;;;;7.55;4.30;;;;;;;;;;5070591;28;20692;-65
2022/08/16 05:04:28;;;;;;;7.07;3.67;;;;;;;;;;5069504;28;20024;-65
2022/08/16 05:06:53;;;;;;;5.57;3.92;;;;;;;;;;5071975;28;20054;-65
2022/08/16 05:09:18;;;;;;;6.43;3.53;;;;;;;;;;5069966;28;20024;-66
2022/08/16 05:11:44;;;;;;;5.60;3.70;;;;;;;;;;5069317;28;21865;-66
2022/08/16 05:14:09;;;;;;;8.23;3.63;;;;;;;;;;5067235;28;20031;-66
2022/08/16 05:16:35;;;;;;;5.18;3.42;;;;;;;;;;5067367;28;20082;-65
2022/08/16 05:19:03;;;;;;;7.25;3.67;;;;;;;;;;5070889;28;20027;-65
2022/08/16 05:21:30;;;;;;;7.78;3.15;;;;;;;;;;5069411;28;20043;-65
2022/08/16 05:23:55;;;;;;;10.60;3.63;;;;;;;;;;5071443;28;20025;-66
2022/08/16 05:26:21;;;;;;;6.88;3.72;;;;;;;;;;5067807;28;20100;-65
2022/08/16 05:28:46;;;;;;;6.37;3.97;;;;;;;;;;5069661;28;20069;-65
2022/08/16 05:31:12;;;;;;;7.20;3.83;;;;;;;;;;5063689;28;20779;-65
2022/08/16 05:33:37;;;;;;;6.65;3.42;;;;;;;;;;5070752;28;20052;-65
2022/08/16 05:36:03;;;;;;;6.60;3.58;;;;;;;;;;5069037;28;20051;-65
2022/08/16 05:38:28;;;;;;;5.25;3.25;;;;;;;;;;5071210;28;20016;-65
2022/08/16 05:40:54;;;;;;;10.43;4.40;;;;;;;;;;5062481;28;20020;-66
2022/08/16 05:43:19;;;;;;;7.47;3.72;;;;;;;;;;5070076;28;20162;-65
2022/08/16 05:45:44;;;;;;;6.30;3.55;;;;;;;;;;5064080;28;20028;-65
2022/08/16 05:50:39;;;;;;;6.50;3.50;;;;;;;;;;5058894;28;20056;-65
2022/08/16 05:53:04;;;;;;;7.10;3.65;;;;;;;;;;5066841;28;20020;-65
2022/08/16 05:55:30;;;;;;;6.75;3.55;;;;;;;;;;5061669;28;20025;-63
2022/08/16 05:57:55;;;;;;;8.70;3.57;;;;;;;;;;5066542;28;20093;-65
2022/08/16 06:00:20;;;;;;;6.32;3.53;;;;;;;;;;5042064;28;20272;-65
2022/08/16 06:02:45;;;;;;;15.05;3.75;;;;;;;;;;5047614;28;20024;-65
2022/08/16 06:05:11;;;;;;;5.57;3.47;;;;;;;;;;5049428;28;20477;-66
2022/08/16 06:07:36;;;;;;;7.07;3.80;;;;;;;;;;5047466;28;20025;-66
2022/08/16 06:10:02;;;;;;;6.07;3.55;;;;;;;;;;5048884;28;20029;-66
2022/08/16 06:12:28;;;;;;;6.60;3.05;;;;;;;;;;5049409;28;20036;-66
2022/08/16 06:14:57;;;;;;;8.77;3.03;;;;;;;;;;5046882;28;20416;-66
2022/08/16 06:17:22;;;;;;;4.43;2.63;;;;;;;;;;5049253;28;20028;-65
2022/08/16 06:19:48;;;;;;;5.80;3.33;;;;;;;;;;5043582;28;20384;-65
2022/08/16 06:22:13;;;;;;;6.13;3.73;;;;;;;;;;5047567;28;20021;-65
2022/08/16 06:24:38;;;;;;;5.50;3.20;;;;;;;;;;5049139;28;20283;-65
2022/08/16 06:27:03;;;;;;;3.37;3.03;;;;;;;;;;5045710;28;20103;-65
2022/08/16 06:29:28;;;;;;;5.93;3.85;;;;;;;;;;5042854;28;20021;-65
2022/08/16 06:31:54;;;;;;;5.38;3.30;;;;;;;;;;5042760;28;20052;-66
2022/08/16 06:34:19;;;;;;;3.33;2.33;;;;;;;;;;5045426;28;20079;-64
2022/08/16 06:36:44;;;;;;;5.13;3.47;;;;;;;;;;5046383;28;20295;-65
2022/08/16 06:39:09;;;;;;;14.00;3.70;;;;;;;;;;5046609;28;20025;-65
2022/08/16 06:41:34;;;;;;;7.10;3.20;;;;;;;;;;5044032;28;20325;-66
2022/08/16 06:44:00;;;;;;;4.88;3.20;;;;;;;;;;5051237;28;20048;-65
2022/08/16 06:46:28;;;;;;;5.57;3.28;;;;;;;;;;5049462;28;20112;-63
2022/08/16 06:48:53;;;;;;;10.52;3.50;;;;;;;;;;5049279;28;20393;-66
2022/08/16 06:51:18;;;;;;;6.68;3.60;;;;;;;;;;5048648;28;20031;-65
2022/08/16 06:53:43;;;;;;;8.45;3.50;;;;;;;;;;5049870;28;20090;-66
2022/08/16 06:56:09;;;;;;;10.55;3.33;;;;;;;;;;5047182;28;20060;-64
2022/08/16 06:58:34;;;;;;;4.80;3.05;;;;;;;;;;5050211;28;20384;-65
2022/08/16 07:01:00;;;;;;;6.03;3.43;;;;;;;;;;5028068;28;20023;-65
2022/08/16 07:03:26;;;;;;;5.22;3.45;;;;;;;;;;5050665;28;20325;-66
2022/08/16 07:05:51;;;;;;;6.90;3.63;;;;;;;;;;5049928;28;20033;-65
2022/08/16 07:08:17;;;;;;;4.88;3.58;;;;;;;;;;5052663;28;20448;-65
2022/08/16 07:10:42;;;;;;;10.77;3.07;;;;;;;;;;5051651;28;20028;-66
2022/08/16 07:13:07;;;;;;;8.77;3.43;;;;;;;;;;5051779;28;20495;-65
2022/08/16 07:15:33;;;;;;;4.93;3.10;;;;;;;;;;5052172;28;20036;-66
2022/08/16 07:18:00;;;;;;;10.70;3.22;;;;;;;;;;5046873;28;20473;-66
2022/08/16 07:20:26;;;;;;;6.30;2.95;;;;;;;;;;5047041;28;20063;-66
2022/08/16 07:22:54;;;;;;;9.55;3.30;;;;;;;;;;5049996;28;20454;-66
2022/08/16 07:25:20;;;;;;;5.55;2.72;;;;;;;;;;5045312;28;20032;-66
2022/08/16 07:27:45;;;;;;;7.13;3.17;;;;;;;;;;5053044;28;20024;-66
2022/08/16 07:30:12;;;;;;;3.43;3.00;;;;;;;;;;5053378;28;20489;-66
2022/08/16 07:32:37;;;;;;;4.38;2.78;;;;;;;;;;5053304;28;20751;-65
2022/08/16 07:35:03;;;;;;;7.45;3.22;;;;;;;;;;5051142;28;20217;-66
2022/08/16 07:37:28;;;;;;;5.03;3.13;;;;;;;;;;5052414;28;20389;-67
2022/08/16 07:39:53;;;;;;;7.17;2.40;;;;;;;;;;5049057;28;20048;-66
2022/08/16 07:42:18;;;;;;;4.93;2.80;;;;;;;;;;5051131;28;20314;-67
2022/08/16 07:44:44;;;;;;;4.17;2.87;;;;;;;;;;5052245;28;20021;-66
2022/08/16 07:47:09;;;;;;;5.30;2.77;;;;;;;;;;5053074;28;20074;-67
2022/08/16 07:49:34;;;;;;;5.07;3.07;;;;;;;;;;5053310;28;20029;-66
2022/08/16 07:51:59;;;;;;;6.10;2.97;;;;;;;;;;5052647;28;20260;-67
2022/08/16 07:54:25;;;;;;;6.33;3.60;;;;;;;;;;5052206;28;20021;-67
2022/08/16 07:56:50;;;;;;;4.50;2.58;;;;;;;;;;5051213;28;20024;-67
2022/08/16 07:59:15;;;;;;;2.73;2.40;;;;;;;;;;5053769;28;20021;-67
2022/08/16 08:01:41;;;;;;;5.00;2.40;;;;;;;;;;5053489;28;20017;-66
2022/08/16 08:04:09;;;;;;;4.80;2.80;;;;;;;;;;5051803;28;20053;-65
2022/08/16 08:06:34;;;;;;;5.82;3.28;;;;;;;;;;5051498;28;20377;-66
2022/08/16 08:09:00;;;;;;;6.57;3.00;;;;;;;;;;5049580;28;20490;-65
2022/08/16 08:11:26;;;;;;;4.32;2.70;;;;;;;;;;5044631;28;20032;-67
2022/08/16 08:13:51;;;;;;;6.05;2.33;;;;;;;;;;5040662;28;20037;-65
2022/08/16 08:16:18;;;;;;;6.53;3.35;;;;;;;;;;5050860;28;20027;-65
2022/08/16 08:18:43;;;;;;;5.03;2.97;;;;;;;;;;5032992;28;20025;-66
2022/08/16 08:21:09;;;;;;;9.90;3.25;;;;;;;;;;5050555;28;20019;-66
2022/08/16 08:23:37;;;;;;;3.63;2.43;;;;;;;;;;5049487;28;20104;-66
2022/08/16 08:26:03;;;;;;;7.40;2.67;;;;;;;;;;5050916;28;20074;-65
2022/08/16 08:28:29;;;;;;;4.78;3.03;;;;;;;;;;5050875;28;20481;-65
2022/08/16 08:30:54;;;;;;;7.35;3.28;;;;;;;;;;5050639;28;20020;-66
2022/08/16 08:33:20;;;;;;;11.23;3.27;;;;;;;;;;5049796;28;20025;-65
2022/08/16 08:35:45;;;;;;;5.40;3.20;;;;;;;;;;5049089;28;20291;-66
2022/08/16 08:38:10;;;;;;;6.47;3.90;;;;;;;;;;5050502;28;20208;-64
2022/08/16 08:40:37;;;;;;;10.27;3.17;;;;;;;;;;5050524;28;20587;-66
2022/08/16 08:43:03;;;;;;;7.97;3.65;;;;;;;;;;5051121;28;20489;-64
2022/08/16 08:45:29;;;;;;;12.75;4.55;;;;;;;;;;5050395;28;20480;-65
2022/08/16 08:47:55;;;;;;;12.25;4.68;;;;;;;;;;5050974;28;20025;-67
2022/08/16 08:50:21;;;;;;;10.40;4.03;;;;;;;;;;5048392;28;20428;-65
2022/08/16 08:52:47;;;;;;;11.05;3.72;;;;;;;;;;5050185;28;20021;-67
2022/08/16 08:55:13;;;;;;;7.53;3.70;;;;;;;;;;5050430;28;20020;-66
2022/08/16 08:57:43;;;;;;;10.13;3.70;;;;;;;;;;5050042;28;20359;-65
2022/08/16 09:00:10;;;;;;;6.80;3.85;;;;;;;;;;5048658;28;20017;-65
2022/08/16 09:02:35;;;;;;;12.90;4.00;;;;;;;;;;5049044;28;20052;-64
2022/08/16 09:05:00;;;;;;;7.65;4.43;;;;;;;;;;5041668;28;20064;-64
2022/08/16 09:07:26;;;;;;;3.90;3.27;;;;;;;;;;5047436;28;20024;-64
2022/08/16 09:09:51;;;;;;;13.33;4.53;;;;;;;;;;5050025;28;20048;-64
2022/08/16 09:12:17;;;;;;;6.57;4.23;;;;;;;;;;5049946;28;20032;-64
2022/08/16 09:14:44;;;;;;;9.70;4.13;;;;;;;;;;5050187;28;20025;-65
2022/08/16 09:17:09;;;;;;;8.40;3.65;;;;;;;;;;5050073;28;20020;-64
2022/08/16 09:19:36;;;;;;;6.18;3.78;;;;;;;;;;5047923;28;20017;-65
2022/08/16 09:22:03;;;;;;;4.75;3.67;;;;;;;;;;5047335;28;20024;-65
2022/08/16 09:24:28;;;;;;;10.75;4.13;;;;;;;;;;5048895;28;20029;-64
2022/08/16 09:26:54;;;;;;;15.40;4.03;;;;;;;;;;5049988;28;20032;-65
2022/08/16 09:29:19;;;;;;;8.63;3.90;;;;;;;;;;5049763;28;20426;-65
2022/08/16 09:31:45;;;;;;;8.00;3.90;;;;;;;;;;5049198;28;20104;-65
2022/08/16 09:34:10;;;;;;;10.52;3.88;;;;;;;;;;5049058;28;20461;-65
2022/08/16 09:36:36;;;;;;;10.48;4.13;;;;;;;;;;5049812;28;20086;-65
2022/08/16 09:39:02;;;;;;;5.22;3.47;;;;;;;;;;5046331;28;20021;-65
2022/08/16 09:41:28;;;;;;;7.30;4.32;;;;;;;;;;5049222;28;20457;-65
2022/08/16 09:43:53;;;;;;;10.27;3.78;;;;;;;;;;5047527;28;20071;-65
2022/08/16 09:46:19;;;;;;;6.37;3.90;;;;;;;;;;5049524;28;20040;-65
2022/08/16 09:48:45;;;;;;;6.03;3.83;;;;;;;;;;5048368;28;20271;-66
2022/08/16 09:51:11;;;;;;;12.32;4.18;;;;;;;;;;5049023;28;20100;-66
2022/08/16 09:53:37;;;;;;;15.93;4.15;;;;;;;;;;5048402;28;20029;-66
2022/08/16 09:56:06;;;;;;;9.98;3.50;;;;;;;;;;5049655;28;20013;-67
2022/08/16 09:58:32;;;;;;;9.57;3.85;;;;;;;;;;5047831;28;20025;-67
2022/08/16 10:00:57;;;;;;;8.23;3.60;;;;;;;;;;5050734;28;20436;-67
2022/08/16 10:03:22;;;;;;;11.90;4.60;;;;;;;;;;5048446;28;20029;-67
2022/08/16 10:05:47;;;;;;;8.00;3.80;;;;;;;;;;5047631;28;20820;-66
2022/08/16 10:08:15;;;;;;;15.60;4.00;;;;;;;;;;5048973;28;20255;-66
2022/08/16 10:10:41;;;;;;;6.18;4.13;;;;;;;;;;5048852;28;20509;-67
2022/08/16 10:13:12;;;;;;;7.70;4.03;;;;;;;;;;5050247;28;20025;-67
2022/08/16 10:15:38;;;;;;;7.65;4.32;;;;;;;;;;5054765;28;20025;-67
2022/08/16 10:18:08;;;;;;;14.27;4.65;;;;;;;;;;5055540;28;20021;-67
2022/08/16 10:20:33;;;;;;;;;;;;;;;;;;5054390;28;20235;-66
2022/08/16 10:22:58;;;;;;;8.90;4.00;;;;;;;;;;5054666;28;19915;-66
2022/08/16 10:25:23;;;;;;;7.70;4.50;;;;;;;;;;5054240;28;20188;-67
2022/08/16 10:27:49;;;;;;;10.77;4.63;;;;;;;;;;5055826;28;20039;-66
2022/08/16 10:30:15;;;;;;;6.27;3.60;;;;;;;;;;5053062;28;20035;-63
2022/08/16 10:32:40;;;;;;;11.98;4.47;;;;;;;;;;5053801;28;20029;-66
2022/08/16 10:35:06;;;;;;;6.60;3.90;;;;;;;;;;5054812;28;20420;-64
2022/08/16 10:37:31;;;;;;;8.02;4.28;;;;;;;;;;5050817;28;20009;-65
2022/08/16 10:39:56;;;;;;;15.90;4.10;;;;;;;;;;5053550;28;20024;-66
2022/08/16 10:42:21;;;;;;;15.90;4.85;;;;;;;;;;5055880;28;20264;-66
2022/08/16 10:44:47;;;;;;;7.40;3.50;;;;;;;;;;5039298;28;20456;-66
2022/08/16 10:47:12;;;;;;;6.00;3.70;;;;;;;;;;5054603;28;20537;-66
2022/08/16 10:49:37;;;;;;;8.27;4.20;;;;;;;;;;5054484;28;20032;-66
2022/08/16 10:52:03;;;;;;;15.65;4.00;;;;;;;;;;5049580;28;20029;-67
2022/08/16 10:54:28;;;;;;;18.13;4.63;;;;;;;;;;5054095;28;20108;-67
2022/08/16 10:56:54;;;;;;;9.83;3.60;;;;;;;;;;5054707;28;20100;-66
2022/08/16 10:59:19;;;;;;;5.68;3.25;;;;;;;;;;5054123;28;20025;-65
2022/08/16 11:01:45;;;;;;;10.60;4.50;;;;;;;;;;5050674;28;20048;-66
2022/08/16 11:04:10;;;;;;;10.80;4.00;;;;;;;;;;5052414;28;20029;-66
2022/08/16 11:06:35;;;;;;;10.57;4.03;;;;;;;;;;5046467;28;20148;-65
2022/08/16 11:09:00;;;;;;;9.23;3.43;;;;;;;;;;5049347;28;20044;-66
2022/08/16 11:11:25;;;;;;;10.33;3.90;;;;;;;;;;5052884;28;20094;-66
2022/08/16 11:13:51;;;;;;;11.73;4.22;;;;;;;;;;5050547;28;20128;-64
2022/08/16 11:16:16;;;;;;;12.90;4.22;;;;;;;;;;5049815;28;20525;-67
2022/08/16 11:18:42;;;;;;;9.25;4.15;;;;;;;;;;5050991;28;20017;-65
2022/08/16 11:21:07;;;;;;;9.17;3.33;;;;;;;;;;5049064;28;20016;-64
2022/08/16 11:23:32;;;;;;;8.50;3.60;;;;;;;;;;5051726;28;20271;-66
2022/08/16 11:25:58;;;;;;;8.63;3.63;;;;;;;;;;5051093;28;20488;-66
2022/08/16 11:28:23;;;;;;;6.55;3.70;;;;;;;;;;5051922;28;20025;-66
2022/08/16 11:30:49;;;;;;;10.85;3.58;;;;;;;;;;5051356;28;20005;-65
2022/08/16 11:33:14;;;;;;;5.35;2.95;;;;;;;;;;5048211;28;20021;-66
2022/08/16 11:35:40;;;;;;;10.70;3.53;;;;;;;;;;5051901;28;20021;-67
2022/08/16 11:38:07;;;;;;;12.05;3.53;;;;;;;;;;5051297;28;20379;-67
2022/08/16 11:40:37;;;;;;;7.68;3.42;;;;;;;;;;5051280;28;20566;-65
2022/08/16 11:43:02;;;;;;;9.55;4.07;;;;;;;;;;5047459;28;20531;-66
2022/08/16 11:45:28;;;;;;;8.65;3.63;;;;;;;;;;5048449;28;20071;-67
2022/08/16 11:47:54;;;;;;;12.80;3.72;;;;;;;;;;5051529;28;20650;-67
2022/08/16 11:50:19;;;;;;;9.52;3.60;;;;;;;;;;5050305;28;20024;-64
2022/08/16 11:52:44;;;;;;;8.45;3.85;;;;;;;;;;5051333;28;20087;-65
2022/08/16 11:55:11;;;;;;;11.97;5.20;;;;;;;;;;5030073;28;20060;-64
2022/08/16 11:57:36;;;;;;;7.18;3.88;;;;;;;;;;5048949;28;20020;-66
2022/08/16 12:00:03;;;;;;;8.52;4.10;;;;;;;;;;5049965;28;20028;-65
2022/08/16 12:02:28;;;;;;;11.02;3.92;;;;;;;;;;5050207;28;20021;-65
2022/08/16 12:04:54;;;;;;;11.83;3.97;;;;;;;;;;5050071;28;20146;-65
2022/08/16 12:07:20;;;;;;;6.82;4.22;;;;;;;;;;5049201;28;20025;-65
2022/08/16 12:09:45;;;;;;;13.02;4.30;;;;;;;;;;5048330;28;20039;-65
2022/08/16 12:12:10;;;;;;;8.60;4.15;;;;;;;;;;5050725;28;20072;-64
2022/08/16 12:14:35;;;;;;;6.63;4.00;;;;;;;;;;5050196;28;20094;-65
2022/08/16 12:17:01;;;;;;;6.13;2.50;;;;;;;;;;5049140;28;20267;-64
2022/08/16 12:19:27;;;;;;;9.15;4.55;;;;;;;;;;5050240;28;20021;-64
2022/08/16 12:21:52;;;;;;;8.25;3.65;;;;;;;;;;5050077;28;20469;-64
2022/08/16 12:24:18;;;;;;;5.63;3.53;;;;;;;;;;5048751;28;20021;-65
2022/08/16 12:26:43;;;;;;;13.43;4.07;;;;;;;;;;5040665;28;20033;-64
2022/08/16 12:29:08;;;;;;;8.07;4.18;;;;;;;;;;5050834;28;20021;-65
2022/08/16 12:31:34;;;;;;;6.23;3.97;;;;;;;;;;5042141;28;20054;-65
2022/08/16 12:34:00;;;;;;;14.88;4.00;;;;;;;;;;5050390;28;20048;-66
2022/08/16 12:36:25;;;;;;;7.90;3.93;;;;;;;;;;5048833;28;20389;-66
2022/08/16 12:38:50;;;;;;;5.03;3.40;;;;;;;;;;5046876;28;20032;-67
2022/08/16 12:41:16;;;;;;;10.68;3.65;;;;;;;;;;5048708;28;20025;-64
2022/08/16 12:43:41;;;;;;;6.23;3.97;;;;;;;;;;5031707;28;20013;-66
2022/08/16 12:46:08;;;;;;;8.13;4.30;;;;;;;;;;5041366;28;20489;-66
2022/08/16 12:51:20;;;;;;;6.60;3.15;;;;;;;;;;5048768;28;20090;-65
2022/08/16 12:53:46;;;;;;;6.88;3.58;;;;;;;;;;5050148;28;20013;-64
2022/08/16 12:56:12;;;;;;;5.45;3.70;;;;;;;;;;5043431;28;20021;-66
2022/08/16 12:58:38;;;;;;;11.20;3.95;;;;;;;;;;5045305;28;20029;-64
2022/08/16 13:01:04;;;;;;;7.22;3.42;;;;;;;;;;5047723;28;20109;-64
2022/08/16 13:03:29;;;;;;;8.40;3.55;;;;;;;;;;5050011;28;20100;-66
2022/08/16 13:05:54;;;;;;;6.50;3.70;;;;;;;;;;5048629;28;20500;-65
2022/08/16 13:08:20;;;;;;;7.17;3.53;;;;;;;;;;5050016;28;20628;-65
2022/08/16 13:10:47;;;;;;;7.55;3.55;;;;;;;;;;5048182;28;20033;-64
2022/08/16 13:13:15;;;;;;;9.35;3.38;;;;;;;;;;5049721;28;20021;-66
2022/08/16 13:15:41;;;;;;;8.60;3.63;;;;;;;;;;5045572;28;20025;-64
2022/08/16 13:18:09;;;;;;;9.80;3.75;;;;;;;;;;5047903;28;20021;-66
2022/08/16 13:20:34;;;;;;;10.00;3.83;;;;;;;;;;5047583;28;20028;-65
2022/08/16 13:23:04;;;;;;;8.50;3.87;;;;;;;;;;5047416;28;20035;-66
2022/08/16 13:25:31;;;;;;;9.23;4.00;;;;;;;;;;5045798;28;20344;-66
2022/08/16 13:27:57;;;;;;;8.93;4.13;;;;;;;;;;5046596;28;20024;-65
2022/08/16 13:30:23;;;;;;;8.35;3.97;;;;;;;;;;5048760;28;20021;-64
2022/08/16 13:32:50;;;;;;;12.27;4.95;;;;;;;;;;5047138;28;20047;-65
2022/08/16 13:35:15;;;;;;;9.88;3.28;;;;;;;;;;5044125;28;20053;-66
2022/08/16 13:37:40;;;;;;;9.07;4.07;;;;;;;;;;5048266;28;20067;-65
2022/08/16 13:40:06;;;;;;;9.90;4.10;;;;;;;;;;5046699;28;20435;-64
2022/08/16 13:42:31;;;;;;;9.35;3.70;;;;;;;;;;5046302;28;20028;-65
2022/08/16 13:44:57;;;;;;;8.63;3.55;;;;;;;;;;5047578;28;20052;-68
2022/08/16 13:47:22;;;;;;;7.45;4.00;;;;;;;;;;5045109;28;20068;-64
2022/08/16 13:49:47;;;;;;;7.97;3.28;;;;;;;;;;5051058;28;20090;-64
2022/08/16 13:52:12;;;;;;;9.37;3.60;;;;;;;;;;5051239;28;20044;-67
2022/08/16 13:54:38;;;;;;;6.00;3.93;;;;;;;;;;5050812;28;20054;-64
2022/08/16 13:57:04;;;;;;;5.28;3.55;;;;;;;;;;5044418;28;20295;-65
2022/08/16 13:59:29;;;;;;;4.95;3.55;;;;;;;;;;5052068;28;20021;-66
2022/08/16 14:01:55;;;;;;;5.83;3.60;;;;;;;;;;5051333;28;20070;-65
2022/08/16 14:04:20;;;;;;;9.82;4.38;;;;;;;;;;5049741;28;20043;-65
2022/08/16 14:06:46;;;;;;;12.95;3.83;;;;;;;;;;5051554;28;20171;-65
2022/08/16 14:09:11;;;;;;;19.23;4.13;;;;;;;;;;5049589;28;20029;-64
2022/08/16 14:11:37;;;;;;;15.77;4.00;;;;;;;;;;5052636;28;20272;-65
2022/08/16 14:14:02;;;;;;;29.60;5.90;;;;;;;;;;5051733;28;20425;-66
2022/08/16 14:16:27;;;;;;;8.57;4.53;;;;;;;;;;5053410;28;20375;-66
2022/08/16 14:18:52;;;;;;;9.57;3.77;;;;;;;;;;5050998;28;20413;-64
2022/08/16 14:21:18;;;;;;;13.93;5.13;;;;;;;;;;5046104;28;20255;-64
2022/08/16 14:23:43;;;;;;;8.48;3.53;;;;;;;;;;5051860;28;20408;-64
2022/08/16 14:26:08;;;;;;;6.83;3.87;;;;;;;;;;5050255;28;20454;-65
2022/08/16 14:28:34;;;;;;;13.40;4.40;;;;;;;;;;5052097;28;20655;-65
2022/08/16 14:30:59;;;;;;;9.88;4.00;;;;;;;;;;5051773;28;20374;-66
2022/08/16 14:33:24;;;;;;;13.50;3.80;;;;;;;;;;5052404;28;20017;-65
2022/08/16 14:35:49;;;;;;;8.70;4.05;;;;;;;;;;5052263;28;20692;-65